createdAt,value
2023-05-22T00:00:00.000Z,18.19
2023-05-22T00:15:00.000Z,18.17
2023-05-22T00:30:00.000Z,17.64
2023-05-22T00:45:00.000Z,18.16
2023-05-22T01:00:00.000Z,17.85
2023-05-22T01:15:00.000Z,17.52
2023-05-22T01:30:00.000Z,17.35
2023-05-22T01:45:00.000Z,17.57
2023-05-22T02:00:00.000Z,17.49
2023-05-22T02:15:00.000Z,17.2
2023-05-22T02:30:00.000Z,16.96
2023-05-22T02:45:00.000Z,16.83
2023-05-22T03:00:00.000Z,16.99
2023-05-22T03:15:00.000Z,17.02
2023-05-22T03:30:00.000Z,17.28
2023-05-22T03:45:00.000Z,17.44
2023-05-22T04:00:00.000Z,17.33
2023-05-22T04:15:00.000Z,17.2
2023-05-22T04:30:00.000Z,17.8
2023-05-22T04:45:00.000Z,18.58
2023-05-22T05:00:00.000Z,19.05
2023-05-22T05:15:00.000Z,19.69
2023-05-22T05:30:00.000Z,20.06
2023-05-22T05:45:00.000Z,20.74
2023-05-22T06:00:00.000Z,21
2023-05-22T06:15:00.000Z,21.66
2023-05-22T06:30:00.000Z,22.68
2023-05-22T06:45:00.000Z,26.87
2023-05-22T07:00:00.000Z,29.96
2023-05-22T07:15:00.000Z,31.22
2023-05-22T07:30:00.000Z,31
2023-05-22T07:45:00.000Z,31.44
2023-05-22T08:00:00.000Z,32.58
2023-05-22T08:15:00.000Z,33.09
2023-05-22T08:30:00.000Z,33.39
2023-05-22T08:45:00.000Z,33.3
2023-05-22T09:00:00.000Z,33.35
2023-05-22T09:15:00.000Z,33.4
2023-05-22T09:30:00.000Z,33.27
2023-05-22T09:45:00.000Z,33.28
2023-05-22T10:00:00.000Z,32.69
2023-05-22T10:15:00.000Z,32.44
2023-05-22T10:30:00.000Z,31.84
2023-05-22T10:45:00.000Z,31.72
2023-05-22T11:00:00.000Z,31.45
2023-05-22T11:15:00.000Z,31.33
2023-05-22T11:30:00.000Z,31.33
2023-05-22T11:45:00.000Z,30.89
2023-05-22T12:00:00.000Z,29.71
2023-05-22T12:15:00.000Z,29.73
2023-05-22T12:30:00.000Z,29.97
2023-05-22T12:45:00.000Z,29.83
2023-05-22T13:00:00.000Z,29.51
2023-05-22T13:15:00.000Z,29.29
2023-05-22T13:30:00.000Z,29.44
2023-05-22T13:45:00.000Z,29.21
2023-05-22T14:00:00.000Z,29.18
2023-05-22T14:15:00.000Z,29.15
2023-05-22T14:30:00.000Z,29.05
2023-05-22T14:45:00.000Z,28.91
2023-05-22T15:00:00.000Z,28.72
2023-05-22T15:15:00.000Z,28.65
2023-05-22T15:30:00.000Z,28.56
2023-05-22T15:45:00.000Z,28.42
2023-05-22T16:00:00.000Z,28.2
2023-05-22T16:15:00.000Z,28.03
2023-05-22T16:30:00.000Z,27.8
2023-05-22T16:45:00.000Z,27.68
2023-05-22T17:00:00.000Z,27.5
2023-05-22T17:15:00.000Z,27.25
2023-05-22T17:30:00.000Z,26.93
2023-05-22T17:45:00.000Z,26.45
2023-05-22T18:00:00.000Z,25.82
2023-05-22T18:15:00.000Z,25.29
2023-05-22T18:30:00.000Z,24.72
2023-05-22T18:45:00.000Z,24.17
2023-05-22T19:00:00.000Z,23.73
2023-05-22T19:15:00.000Z,22.89
2023-05-22T19:30:00.000Z,22.67
2023-05-22T19:45:00.000Z,22.24
2023-05-22T20:00:00.000Z,21.89
2023-05-22T20:15:00.000Z,21.61
2023-05-22T20:30:00.000Z,21.56
2023-05-22T20:45:00.000Z,21.66
2023-05-22T21:00:00.000Z,21.65
2023-05-22T21:15:00.000Z,21.45
2023-05-22T21:30:00.000Z,21.12
2023-05-22T21:45:00.000Z,20.84
2023-05-22T22:00:00.000Z,20.65
2023-05-22T22:15:00.000Z,20.34
2023-05-22T22:30:00.000Z,20.02
2023-05-22T22:45:00.000Z,19.82
2023-05-22T23:00:00.000Z,19.55
2023-05-22T23:15:00.000Z,19.3
2023-05-22T23:30:00.000Z,19.02
2023-05-22T23:45:00.000Z,18.73
